sensor_id;sensor_type;location;lat;lon;timestamp;P1;durP1;ratioP1;P2;durP2;ratioP2
19036;SDS011;9651;49.138;8.900;2023-04-08T00:02:42;9.13;;;7.10;;
19036;SDS011;9651;49.138;8.900;2023-04-08T00:06:45;8.80;;;5.73;;
19036;SDS011;9651;49.138;8.900;2023-04-08T00:10:46;8.27;;;5.77;;
19036;SDS011;9651;49.138;8.900;2023-04-08T00:14:50;9.50;;;6.60;;
19036;SDS011;9651;49.138;8.900;2023-04-08T00:18:52;10.40;;;6.23;;
19036;SDS011;9651;49.138;8.900;2023-04-08T00:22:53;9.30;;;6.83;;
19036;SDS011;9651;49.138;8.900;2023-04-08T00:26:55;8.37;;;6.00;;
19036;SDS011;9651;49.138;8.900;2023-04-08T00:30:58;9.13;;;6.53;;
19036;SDS011;9651;49.138;8.900;2023-04-08T00:35:00;9.90;;;6.80;;
19036;SDS011;9651;49.138;8.900;2023-04-08T00:39:03;9.47;;;6.73;;
19036;SDS011;9651;49.138;8.900;2023-04-08T00:43:06;9.03;;;6.37;;
19036;SDS011;9651;49.138;8.900;2023-04-08T00:47:12;10.87;;;7.33;;
19036;SDS011;9651;49.138;8.900;2023-04-08T00:51:14;9.47;;;6.70;;
19036;SDS011;9651;49.138;8.900;2023-04-08T00:55:17;9.43;;;6.33;;
19036;SDS011;9651;49.138;8.900;2023-04-08T00:59:19;10.40;;;6.70;;
19036;SDS011;9651;49.138;8.900;2023-04-08T01:03:24;9.43;;;6.30;;
19036;SDS011;9651;49.138;8.900;2023-04-08T01:07:32;13.67;;;6.47;;
19036;SDS011;9651;49.138;8.900;2023-04-08T01:11:37;9.27;;;6.27;;
19036;SDS011;9651;49.138;8.900;2023-04-08T01:15:44;9.83;;;6.93;;
19036;SDS011;9651;49.138;8.900;2023-04-08T01:19:48;14.13;;;6.97;;
19036;SDS011;9651;49.138;8.900;2023-04-08T01:23:53;10.70;;;7.40;;
19036;SDS011;9651;49.138;8.900;2023-04-08T01:28:03;9.00;;;7.00;;
19036;SDS011;9651;49.138;8.900;2023-04-08T01:32:07;10.57;;;6.50;;
19036;SDS011;9651;49.138;8.900;2023-04-08T01:36:11;9.77;;;6.90;;
19036;SDS011;9651;49.138;8.900;2023-04-08T01:40:14;10.57;;;7.37;;
19036;SDS011;9651;49.138;8.900;2023-04-08T01:44:19;10.53;;;7.37;;
19036;SDS011;9651;49.138;8.900;2023-04-08T01:48:24;12.20;;;8.43;;
19036;SDS011;9651;49.138;8.900;2023-04-08T01:52:27;14.33;;;8.47;;
19036;SDS011;9651;49.138;8.900;2023-04-08T01:56:30;13.33;;;8.33;;
19036;SDS011;9651;49.138;8.900;2023-04-08T02:00:38;14.57;;;7.83;;
19036;SDS011;9651;49.138;8.900;2023-04-08T02:04:42;15.37;;;9.53;;
19036;SDS011;9651;49.138;8.900;2023-04-08T02:08:44;16.27;;;8.93;;
19036;SDS011;9651;49.138;8.900;2023-04-08T02:12:47;13.77;;;8.43;;
19036;SDS011;9651;49.138;8.900;2023-04-08T02:16:51;13.13;;;8.33;;
19036;SDS011;9651;49.138;8.900;2023-04-08T02:20:56;13.60;;;8.67;;
19036;SDS011;9651;49.138;8.900;2023-04-08T02:25:03;15.07;;;8.97;;
19036;SDS011;9651;49.138;8.900;2023-04-08T02:29:11;17.57;;;9.37;;
19036;SDS011;9651;49.138;8.900;2023-04-08T02:33:18;16.10;;;9.27;;
19036;SDS011;9651;49.138;8.900;2023-04-08T02:37:21;14.40;;;8.90;;
19036;SDS011;9651;49.138;8.900;2023-04-08T02:41:24;14.63;;;8.33;;
19036;SDS011;9651;49.138;8.900;2023-04-08T02:45:29;18.03;;;8.70;;
19036;SDS011;9651;49.138;8.900;2023-04-08T02:49:34;17.03;;;9.53;;
19036;SDS011;9651;49.138;8.900;2023-04-08T02:53:36;16.03;;;9.03;;
19036;SDS011;9651;49.138;8.900;2023-04-08T02:57:38;17.13;;;8.37;;
19036;SDS011;9651;49.138;8.900;2023-04-08T03:01:42;15.13;;;8.80;;
19036;SDS011;9651;49.138;8.900;2023-04-08T03:05:45;15.17;;;9.63;;
19036;SDS011;9651;49.138;8.900;2023-04-08T03:09:47;17.07;;;8.87;;
19036;SDS011;9651;49.138;8.900;2023-04-08T03:13:49;19.30;;;10.13;;
19036;SDS011;9651;49.138;8.900;2023-04-08T03:17:51;17.73;;;9.40;;
19036;SDS011;9651;49.138;8.900;2023-04-08T03:21:54;18.13;;;9.87;;
19036;SDS011;9651;49.138;8.900;2023-04-08T03:25:56;13.30;;;9.03;;
19036;SDS011;9651;49.138;8.900;2023-04-08T03:29:58;15.13;;;9.03;;
19036;SDS011;9651;49.138;8.900;2023-04-08T03:34:00;18.07;;;10.37;;
19036;SDS011;9651;49.138;8.900;2023-04-08T03:38:03;16.83;;;9.70;;
19036;SDS011;9651;49.138;8.900;2023-04-08T03:42:06;16.43;;;9.60;;
19036;SDS011;9651;49.138;8.900;2023-04-08T03:46:07;18.43;;;10.40;;
19036;SDS011;9651;49.138;8.900;2023-04-08T03:50:10;16.50;;;10.03;;
19036;SDS011;9651;49.138;8.900;2023-04-08T03:54:13;15.13;;;9.63;;
19036;SDS011;9651;49.138;8.900;2023-04-08T03:58:15;15.33;;;9.60;;
19036;SDS011;9651;49.138;8.900;2023-04-08T04:02:17;17.17;;;10.60;;
19036;SDS011;9651;49.138;8.900;2023-04-08T04:06:19;17.53;;;10.27;;
19036;SDS011;9651;49.138;8.900;2023-04-08T04:10:22;15.93;;;10.30;;
19036;SDS011;9651;49.138;8.900;2023-04-08T04:14:24;15.80;;;9.13;;
19036;SDS011;9651;49.138;8.900;2023-04-08T04:18:26;15.53;;;8.97;;
19036;SDS011;9651;49.138;8.900;2023-04-08T04:22:28;20.30;;;10.97;;
19036;SDS011;9651;49.138;8.900;2023-04-08T04:26:31;16.97;;;9.53;;
19036;SDS011;9651;49.138;8.900;2023-04-08T04:30:35;19.03;;;10.00;;
19036;SDS011;9651;49.138;8.900;2023-04-08T04:34:37;18.00;;;10.20;;
19036;SDS011;9651;49.138;8.900;2023-04-08T04:38:39;21.33;;;11.03;;
19036;SDS011;9651;49.138;8.900;2023-04-08T04:42:43;18.73;;;11.90;;
19036;SDS011;9651;49.138;8.900;2023-04-08T04:46:45;20.57;;;11.40;;
19036;SDS011;9651;49.138;8.900;2023-04-08T04:50:53;19.83;;;10.93;;
19036;SDS011;9651;49.138;8.900;2023-04-08T04:54:55;18.50;;;10.60;;
19036;SDS011;9651;49.138;8.900;2023-04-08T04:58:59;20.60;;;11.20;;
19036;SDS011;9651;49.138;8.900;2023-04-08T05:03:01;18.23;;;11.43;;
19036;SDS011;9651;49.138;8.900;2023-04-08T05:07:03;19.53;;;11.23;;
19036;SDS011;9651;49.138;8.900;2023-04-08T05:11:07;20.10;;;10.87;;
19036;SDS011;9651;49.138;8.900;2023-04-08T05:15:11;17.10;;;10.80;;
19036;SDS011;9651;49.138;8.900;2023-04-08T05:19:13;18.37;;;9.83;;
19036;SDS011;9651;49.138;8.900;2023-04-08T05:23:15;17.97;;;10.27;;
19036;SDS011;9651;49.138;8.900;2023-04-08T05:27:17;16.47;;;9.97;;
19036;SDS011;9651;49.138;8.900;2023-04-08T05:31:22;18.43;;;10.40;;
19036;SDS011;9651;49.138;8.900;2023-04-08T05:35:23;21.73;;;10.70;;
19036;SDS011;9651;49.138;8.900;2023-04-08T05:39:25;17.17;;;10.00;;
19036;SDS011;9651;49.138;8.900;2023-04-08T05:43:27;16.93;;;9.70;;
19036;SDS011;9651;49.138;8.900;2023-04-08T05:47:31;18.50;;;10.63;;
19036;SDS011;9651;49.138;8.900;2023-04-08T05:51:33;16.87;;;10.23;;
19036;SDS011;9651;49.138;8.900;2023-04-08T05:55:35;17.87;;;10.00;;
19036;SDS011;9651;49.138;8.900;2023-04-08T05:59:37;17.73;;;10.63;;
19036;SDS011;9651;49.138;8.900;2023-04-08T06:03:40;19.13;;;9.10;;
19036;SDS011;9651;49.138;8.900;2023-04-08T06:07:42;21.00;;;11.00;;
19036;SDS011;9651;49.138;8.900;2023-04-08T06:11:44;19.80;;;11.07;;
19036;SDS011;9651;49.138;8.900;2023-04-08T06:15:48;17.03;;;9.43;;
19036;SDS011;9651;49.138;8.900;2023-04-08T06:19:52;17.93;;;10.00;;
19036;SDS011;9651;49.138;8.900;2023-04-08T06:23:54;19.13;;;10.17;;
19036;SDS011;9651;49.138;8.900;2023-04-08T06:27:55;22.03;;;11.10;;
19036;SDS011;9651;49.138;8.900;2023-04-08T06:31:57;20.20;;;11.30;;
19036;SDS011;9651;49.138;8.900;2023-04-08T06:36:04;17.50;;;10.23;;
19036;SDS011;9651;49.138;8.900;2023-04-08T06:40:07;19.77;;;10.10;;
19036;SDS011;9651;49.138;8.900;2023-04-08T06:44:10;22.00;;;11.33;;
19036;SDS011;9651;49.138;8.900;2023-04-08T06:48:12;20.30;;;11.90;;
19036;SDS011;9651;49.138;8.900;2023-04-08T06:52:15;18.87;;;10.20;;
19036;SDS011;9651;49.138;8.900;2023-04-08T06:56:17;19.20;;;10.37;;
19036;SDS011;9651;49.138;8.900;2023-04-08T07:00:20;18.00;;;10.70;;
19036;SDS011;9651;49.138;8.900;2023-04-08T07:04:22;20.77;;;10.80;;
19036;SDS011;9651;49.138;8.900;2023-04-08T07:08:25;18.90;;;11.23;;
19036;SDS011;9651;49.138;8.900;2023-04-08T07:12:27;19.17;;;10.57;;
19036;SDS011;9651;49.138;8.900;2023-04-08T07:16:29;17.90;;;10.43;;
19036;SDS011;9651;49.138;8.900;2023-04-08T07:20:31;18.70;;;10.57;;
19036;SDS011;9651;49.138;8.900;2023-04-08T07:24:38;15.37;;;9.33;;
19036;SDS011;9651;49.138;8.900;2023-04-08T07:28:42;15.27;;;9.57;;
19036;SDS011;9651;49.138;8.900;2023-04-08T07:32:43;15.43;;;9.93;;
19036;SDS011;9651;49.138;8.900;2023-04-08T07:36:45;14.63;;;10.10;;
19036;SDS011;9651;49.138;8.900;2023-04-08T07:40:49;14.33;;;9.07;;
19036;SDS011;9651;49.138;8.900;2023-04-08T07:44:51;12.77;;;8.23;;
19036;SDS011;9651;49.138;8.900;2023-04-08T07:48:53;13.10;;;8.27;;
19036;SDS011;9651;49.138;8.900;2023-04-08T07:52:55;12.82;;;8.95;;
19036;SDS011;9651;49.138;8.900;2023-04-08T07:56:58;11.80;;;8.25;;
19036;SDS011;9651;49.138;8.900;2023-04-08T08:01:01;9.85;;;7.55;;
19036;SDS011;9651;49.138;8.900;2023-04-08T08:05:03;10.52;;;7.57;;
19036;SDS011;9651;49.138;8.900;2023-04-08T08:09:05;9.63;;;7.47;;
19036;SDS011;9651;49.138;8.900;2023-04-08T08:13:08;12.65;;;8.50;;
19036;SDS011;9651;49.138;8.900;2023-04-08T08:17:11;12.80;;;8.38;;
19036;SDS011;9651;49.138;8.900;2023-04-08T08:21:13;11.65;;;7.85;;
19036;SDS011;9651;49.138;8.900;2023-04-08T08:25:15;11.15;;;8.60;;
19036;SDS011;9651;49.138;8.900;2023-04-08T08:29:19;11.25;;;8.73;;
19036;SDS011;9651;49.138;8.900;2023-04-08T08:33:21;10.32;;;8.35;;
19036;SDS011;9651;49.138;8.900;2023-04-08T08:37:22;9.60;;;8.43;;
19036;SDS011;9651;49.138;8.900;2023-04-08T08:41:25;12.82;;;7.85;;
19036;SDS011;9651;49.138;8.900;2023-04-08T08:45:41;10.18;;;7.13;;
19036;SDS011;9651;49.138;8.900;2023-04-08T08:49:54;10.43;;;8.05;;
19036;SDS011;9651;49.138;8.900;2023-04-08T08:54:03;8.07;;;6.97;;
19036;SDS011;9651;49.138;8.900;2023-04-08T09:03:24;9.68;;;7.30;;
19036;SDS011;9651;49.138;8.900;2023-04-08T09:07:34;8.25;;;7.03;;
19036;SDS011;9651;49.138;8.900;2023-04-08T09:12:01;7.80;;;6.93;;
19036;SDS011;9651;49.138;8.900;2023-04-08T09:16:55;8.02;;;7.22;;
19036;SDS011;9651;49.138;8.900;2023-04-08T09:20:57;10.30;;;8.57;;
19036;SDS011;9651;49.138;8.900;2023-04-08T09:25:35;9.30;;;7.32;;
19036;SDS011;9651;49.138;8.900;2023-04-08T09:30:12;9.13;;;8.23;;
19036;SDS011;9651;49.138;8.900;2023-04-08T09:34:14;8.32;;;7.30;;
19036;SDS011;9651;49.138;8.900;2023-04-08T09:38:21;9.52;;;8.30;;
19036;SDS011;9651;49.138;8.900;2023-04-08T09:42:23;8.55;;;7.30;;
19036;SDS011;9651;49.138;8.900;2023-04-08T09:46:26;9.93;;;7.15;;
19036;SDS011;9651;49.138;8.900;2023-04-08T09:50:35;8.27;;;7.47;;
19036;SDS011;9651;49.138;8.900;2023-04-08T09:54:43;7.65;;;6.90;;
19036;SDS011;9651;49.138;8.900;2023-04-08T09:58:53;9.02;;;6.20;;
19036;SDS011;9651;49.138;8.900;2023-04-08T10:03:02;7.90;;;6.57;;
19036;SDS011;9651;49.138;8.900;2023-04-08T10:07:11;8.93;;;6.90;;
19036;SDS011;9651;49.138;8.900;2023-04-08T10:11:16;7.05;;;6.35;;
19036;SDS011;9651;49.138;8.900;2023-04-08T10:15:22;6.95;;;6.25;;
19036;SDS011;9651;49.138;8.900;2023-04-08T10:19:37;7.82;;;5.75;;
19036;SDS011;9651;49.138;8.900;2023-04-08T10:23:53;7.47;;;6.10;;
19036;SDS011;9651;49.138;8.900;2023-04-08T10:28:00;7.95;;;6.63;;
19036;SDS011;9651;49.138;8.900;2023-04-08T10:32:02;8.20;;;5.95;;
19036;SDS011;9651;49.138;8.900;2023-04-08T10:36:08;7.25;;;6.55;;
19036;SDS011;9651;49.138;8.900;2023-04-08T10:40:17;7.90;;;6.47;;
19036;SDS011;9651;49.138;8.900;2023-04-08T10:44:21;10.88;;;6.78;;
19036;SDS011;9651;49.138;8.900;2023-04-08T10:48:24;10.35;;;7.30;;
19036;SDS011;9651;49.138;8.900;2023-04-08T10:52:28;9.85;;;7.28;;
19036;SDS011;9651;49.138;8.900;2023-04-08T10:56:30;10.30;;;5.80;;
19036;SDS011;9651;49.138;8.900;2023-04-08T11:00:34;9.82;;;6.78;;
19036;SDS011;9651;49.138;8.900;2023-04-08T11:04:40;8.35;;;6.32;;
19036;SDS011;9651;49.138;8.900;2023-04-08T11:08:42;8.27;;;6.88;;
19036;SDS011;9651;49.138;8.900;2023-04-08T11:12:44;9.15;;;6.82;;
19036;SDS011;9651;49.138;8.900;2023-04-08T11:16:55;7.80;;;6.18;;
19036;SDS011;9651;49.138;8.900;2023-04-08T11:20:59;8.90;;;7.05;;
19036;SDS011;9651;49.138;8.900;2023-04-08T11:25:02;9.80;;;7.47;;
19036;SDS011;9651;49.138;8.900;2023-04-08T11:29:08;8.52;;;6.95;;
19036;SDS011;9651;49.138;8.900;2023-04-08T11:33:14;8.43;;;5.90;;
19036;SDS011;9651;49.138;8.900;2023-04-08T11:37:16;8.07;;;6.88;;
19036;SDS011;9651;49.138;8.900;2023-04-08T11:41:18;8.10;;;6.43;;
19036;SDS011;9651;49.138;8.900;2023-04-08T11:45:21;9.20;;;7.65;;
19036;SDS011;9651;49.138;8.900;2023-04-08T11:49:25;11.50;;;7.65;;
19036;SDS011;9651;49.138;8.900;2023-04-08T11:53:27;9.38;;;7.90;;
19036;SDS011;9651;49.138;8.900;2023-04-08T11:57:29;11.15;;;8.30;;
19036;SDS011;9651;49.138;8.900;2023-04-08T12:01:31;10.68;;;8.82;;
19036;SDS011;9651;49.138;8.900;2023-04-08T12:05:35;10.38;;;8.50;;
19036;SDS011;9651;49.138;8.900;2023-04-08T12:09:37;9.88;;;7.30;;
19036;SDS011;9651;49.138;8.900;2023-04-08T12:13:39;10.98;;;7.60;;
19036;SDS011;9651;49.138;8.900;2023-04-08T12:17:41;11.00;;;8.05;;
19036;SDS011;9651;49.138;8.900;2023-04-08T12:21:44;11.68;;;8.05;;
19036;SDS011;9651;49.138;8.900;2023-04-08T12:25:46;14.38;;;8.50;;
19036;SDS011;9651;49.138;8.900;2023-04-08T12:29:48;9.93;;;7.20;;
19036;SDS011;9651;49.138;8.900;2023-04-08T12:33:52;9.07;;;7.20;;
19036;SDS011;9651;49.138;8.900;2023-04-08T12:37:55;9.38;;;7.82;;
19036;SDS011;9651;49.138;8.900;2023-04-08T12:41:57;13.10;;;6.30;;
19036;SDS011;9651;49.138;8.900;2023-04-08T12:45:59;8.88;;;6.95;;
19036;SDS011;9651;49.138;8.900;2023-04-08T12:50:02;9.30;;;6.82;;
19036;SDS011;9651;49.138;8.900;2023-04-08T12:54:07;9.45;;;7.15;;
19036;SDS011;9651;49.138;8.900;2023-04-08T12:58:12;7.10;;;6.40;;
19036;SDS011;9651;49.138;8.900;2023-04-08T13:02:15;9.60;;;6.45;;
19036;SDS011;9651;49.138;8.900;2023-04-08T13:06:17;8.20;;;6.57;;
19036;SDS011;9651;49.138;8.900;2023-04-08T13:10:21;7.07;;;6.10;;
19036;SDS011;9651;49.138;8.900;2023-04-08T13:14:24;15.80;;;10.05;;
19036;SDS011;9651;49.138;8.900;2023-04-08T13:18:26;7.65;;;6.72;;
19036;SDS011;9651;49.138;8.900;2023-04-08T13:22:28;6.40;;;5.60;;
19036;SDS011;9651;49.138;8.900;2023-04-08T13:26:31;8.35;;;6.15;;
19036;SDS011;9651;49.138;8.900;2023-04-08T13:30:33;6.97;;;6.13;;
19036;SDS011;9651;49.138;8.900;2023-04-08T13:35:51;8.02;;;5.63;;
19036;SDS011;9651;49.138;8.900;2023-04-08T13:39:53;6.75;;;5.63;;
19036;SDS011;9651;49.138;8.900;2023-04-08T13:43:56;7.25;;;5.38;;
19036;SDS011;9651;49.138;8.900;2023-04-08T13:47:58;5.72;;;5.10;;
19036;SDS011;9651;49.138;8.900;2023-04-08T13:52:01;8.07;;;5.53;;
19036;SDS011;9651;49.138;8.900;2023-04-08T13:56:03;6.63;;;5.38;;
19036;SDS011;9651;49.138;8.900;2023-04-08T14:00:06;5.50;;;4.80;;
19036;SDS011;9651;49.138;8.900;2023-04-08T14:04:12;5.10;;;4.60;;
19036;SDS011;9651;49.138;8.900;2023-04-08T14:08:15;6.22;;;5.20;;
19036;SDS011;9651;49.138;8.900;2023-04-08T14:12:24;7.45;;;4.50;;
19036;SDS011;9651;49.138;8.900;2023-04-08T14:16:26;5.07;;;4.57;;
19036;SDS011;9651;49.138;8.900;2023-04-08T14:20:30;5.43;;;4.28;;
19036;SDS011;9651;49.138;8.900;2023-04-08T14:24:33;5.13;;;4.40;;
19036;SDS011;9651;49.138;8.900;2023-04-08T14:28:35;6.90;;;4.50;;
19036;SDS011;9651;49.138;8.900;2023-04-08T14:32:37;4.82;;;3.63;;
19036;SDS011;9651;49.138;8.900;2023-04-08T14:36:39;6.45;;;4.50;;
19036;SDS011;9651;49.138;8.900;2023-04-08T14:40:42;7.32;;;5.75;;
19036;SDS011;9651;49.138;8.900;2023-04-08T14:44:44;4.47;;;3.72;;
19036;SDS011;9651;49.138;8.900;2023-04-08T14:48:46;5.18;;;4.47;;
19036;SDS011;9651;49.138;8.900;2023-04-08T14:52:48;9.80;;;7.22;;
19036;SDS011;9651;49.138;8.900;2023-04-08T14:56:52;5.55;;;4.55;;
19036;SDS011;9651;49.138;8.900;2023-04-08T15:00:54;4.28;;;3.35;;
19036;SDS011;9651;49.138;8.900;2023-04-08T15:04:56;4.88;;;3.25;;
19036;SDS011;9651;49.138;8.900;2023-04-08T15:08:58;5.57;;;4.53;;
19036;SDS011;9651;49.138;8.900;2023-04-08T15:13:01;2.95;;;2.42;;
19036;SDS011;9651;49.138;8.900;2023-04-08T15:17:03;3.17;;;2.88;;
19036;SDS011;9651;49.138;8.900;2023-04-08T15:21:05;3.33;;;2.97;;
19036;SDS011;9651;49.138;8.900;2023-04-08T15:25:08;4.40;;;2.97;;
19036;SDS011;9651;49.138;8.900;2023-04-08T15:29:11;4.07;;;3.20;;
19036;SDS011;9651;49.138;8.900;2023-04-08T15:33:14;3.53;;;3.20;;
19036;SDS011;9651;49.138;8.900;2023-04-08T15:37:16;3.38;;;2.75;;
19036;SDS011;9651;49.138;8.900;2023-04-08T15:41:18;4.18;;;3.40;;
19036;SDS011;9651;49.138;8.900;2023-04-08T15:45:21;10.10;;;6.37;;
19036;SDS011;9651;49.138;8.900;2023-04-08T15:49:23;8.20;;;5.97;;
19036;SDS011;9651;49.138;8.900;2023-04-08T15:53:25;17.43;;;11.20;;
19036;SDS011;9651;49.138;8.900;2023-04-08T15:57:27;10.50;;;7.53;;
19036;SDS011;9651;49.138;8.900;2023-04-08T16:01:32;11.47;;;7.30;;
19036;SDS011;9651;49.138;8.900;2023-04-08T16:05:34;9.90;;;7.37;;
19036;SDS011;9651;49.138;8.900;2023-04-08T16:09:38;7.40;;;6.13;;
19036;SDS011;9651;49.138;8.900;2023-04-08T16:13:42;6.83;;;4.70;;
19036;SDS011;9651;49.138;8.900;2023-04-08T16:17:49;14.60;;;7.10;;
19036;SDS011;9651;49.138;8.900;2023-04-08T16:21:52;6.70;;;5.50;;
19036;SDS011;9651;49.138;8.900;2023-04-08T16:25:54;7.00;;;5.37;;
19036;SDS011;9651;49.138;8.900;2023-04-08T16:29:56;4.57;;;4.10;;
19036;SDS011;9651;49.138;8.900;2023-04-08T16:33:59;5.17;;;3.93;;
19036;SDS011;9651;49.138;8.900;2023-04-08T16:38:01;5.27;;;4.20;;
19036;SDS011;9651;49.138;8.900;2023-04-08T16:42:06;4.67;;;4.17;;
19036;SDS011;9651;49.138;8.900;2023-04-08T16:46:09;7.57;;;5.77;;
19036;SDS011;9651;49.138;8.900;2023-04-08T16:50:13;4.97;;;4.20;;
19036;SDS011;9651;49.138;8.900;2023-04-08T16:54:15;4.77;;;4.03;;
19036;SDS011;9651;49.138;8.900;2023-04-08T16:58:17;5.50;;;4.53;;
19036;SDS011;9651;49.138;8.900;2023-04-08T17:02:20;9.63;;;7.53;;
19036;SDS011;9651;49.138;8.900;2023-04-08T17:06:23;6.90;;;5.37;;
19036;SDS011;9651;49.138;8.900;2023-04-08T17:10:26;8.67;;;5.57;;
19036;SDS011;9651;49.138;8.900;2023-04-08T17:14:28;6.10;;;4.83;;
19036;SDS011;9651;49.138;8.900;2023-04-08T17:18:30;7.20;;;5.87;;
19036;SDS011;9651;49.138;8.900;2023-04-08T17:22:33;5.10;;;4.07;;
19036;SDS011;9651;49.138;8.900;2023-04-08T17:26:36;5.67;;;4.50;;
19036;SDS011;9651;49.138;8.900;2023-04-08T17:30:40;6.37;;;4.60;;
19036;SDS011;9651;49.138;8.900;2023-04-08T17:34:43;6.40;;;5.07;;
19036;SDS011;9651;49.138;8.900;2023-04-08T17:38:46;5.93;;;4.93;;
19036;SDS011;9651;49.138;8.900;2023-04-08T17:42:48;8.40;;;4.40;;
19036;SDS011;9651;49.138;8.900;2023-04-08T17:46:50;6.07;;;5.47;;
19036;SDS011;9651;49.138;8.900;2023-04-08T17:50:57;7.17;;;5.40;;
19036;SDS011;9651;49.138;8.900;2023-04-08T17:55:01;5.67;;;4.70;;
19036;SDS011;9651;49.138;8.900;2023-04-08T17:59:04;6.53;;;5.17;;
19036;SDS011;9651;49.138;8.900;2023-04-08T18:03:06;6.90;;;5.20;;
19036;SDS011;9651;49.138;8.900;2023-04-08T18:07:08;7.27;;;5.10;;
19036;SDS011;9651;49.138;8.900;2023-04-08T18:11:12;7.90;;;6.17;;
19036;SDS011;9651;49.138;8.900;2023-04-08T18:15:13;6.63;;;5.33;;
19036;SDS011;9651;49.138;8.900;2023-04-08T18:19:16;8.57;;;4.90;;
19036;SDS011;9651;49.138;8.900;2023-04-08T18:23:17;10.43;;;5.50;;
19036;SDS011;9651;49.138;8.900;2023-04-08T18:27:21;5.03;;;4.37;;
19036;SDS011;9651;49.138;8.900;2023-04-08T18:31:23;8.20;;;6.13;;
19036;SDS011;9651;49.138;8.900;2023-04-08T18:35:25;7.77;;;4.80;;
19036;SDS011;9651;49.138;8.900;2023-04-08T18:39:27;6.03;;;5.27;;
19036;SDS011;9651;49.138;8.900;2023-04-08T18:43:30;6.77;;;5.13;;
19036;SDS011;9651;49.138;8.900;2023-04-08T18:47:33;5.77;;;4.30;;
19036;SDS011;9651;49.138;8.900;2023-04-08T18:51:35;9.00;;;6.83;;
19036;SDS011;9651;49.138;8.900;2023-04-08T18:55:37;8.13;;;6.73;;
19036;SDS011;9651;49.138;8.900;2023-04-08T18:59:42;8.13;;;5.87;;
19036;SDS011;9651;49.138;8.900;2023-04-08T19:03:46;5.60;;;4.70;;
19036;SDS011;9651;49.138;8.900;2023-04-08T19:07:48;7.30;;;5.57;;
19036;SDS011;9651;49.138;8.900;2023-04-08T19:11:52;6.97;;;5.67;;
19036;SDS011;9651;49.138;8.900;2023-04-08T19:15:55;8.70;;;6.43;;
19036;SDS011;9651;49.138;8.900;2023-04-08T19:19:57;7.40;;;6.07;;
19036;SDS011;9651;49.138;8.900;2023-04-08T19:23:59;12.30;;;6.87;;
19036;SDS011;9651;49.138;8.900;2023-04-08T19:28:03;7.60;;;6.40;;
19036;SDS011;9651;49.138;8.900;2023-04-08T19:32:08;9.07;;;6.57;;
19036;SDS011;9651;49.138;8.900;2023-04-08T19:36:11;8.97;;;5.67;;
19036;SDS011;9651;49.138;8.900;2023-04-08T19:40:13;6.87;;;6.07;;
19036;SDS011;9651;49.138;8.900;2023-04-08T19:44:15;12.80;;;8.53;;
19036;SDS011;9651;49.138;8.900;2023-04-08T19:48:18;10.60;;;9.10;;
19036;SDS011;9651;49.138;8.900;2023-04-08T19:52:21;10.47;;;7.73;;
19036;SDS011;9651;49.138;8.900;2023-04-08T19:56:23;7.83;;;6.20;;
19036;SDS011;9651;49.138;8.900;2023-04-08T20:00:26;7.50;;;6.47;;
19036;SDS011;9651;49.138;8.900;2023-04-08T20:04:30;10.40;;;6.87;;
19036;SDS011;9651;49.138;8.900;2023-04-08T20:08:32;8.33;;;6.37;;
19036;SDS011;9651;49.138;8.900;2023-04-08T20:12:34;7.97;;;7.17;;
19036;SDS011;9651;49.138;8.900;2023-04-08T20:16:36;8.47;;;6.93;;
19036;SDS011;9651;49.138;8.900;2023-04-08T20:20:39;9.17;;;5.90;;
19036;SDS011;9651;49.138;8.900;2023-04-08T20:24:42;13.13;;;9.60;;
19036;SDS011;9651;49.138;8.900;2023-04-08T20:28:44;12.47;;;9.27;;
19036;SDS011;9651;49.138;8.900;2023-04-08T20:32:47;9.00;;;7.10;;
19036;SDS011;9651;49.138;8.900;2023-04-08T20:36:54;7.93;;;6.77;;
19036;SDS011;9651;49.138;8.900;2023-04-08T20:40:59;10.73;;;8.23;;
19036;SDS011;9651;49.138;8.900;2023-04-08T20:45:05;11.00;;;7.37;;
19036;SDS011;9651;49.138;8.900;2023-04-08T20:49:08;10.60;;;8.03;;
19036;SDS011;9651;49.138;8.900;2023-04-08T20:53:11;12.20;;;8.27;;
19036;SDS011;9651;49.138;8.900;2023-04-08T20:57:13;12.10;;;8.37;;
19036;SDS011;9651;49.138;8.900;2023-04-08T21:01:15;11.40;;;7.63;;
19036;SDS011;9651;49.138;8.900;2023-04-08T21:05:17;9.63;;;7.40;;
19036;SDS011;9651;49.138;8.900;2023-04-08T21:09:21;8.57;;;7.33;;
19036;SDS011;9651;49.138;8.900;2023-04-08T21:13:23;8.27;;;7.00;;
19036;SDS011;9651;49.138;8.900;2023-04-08T21:17:25;9.47;;;6.37;;
19036;SDS011;9651;49.138;8.900;2023-04-08T21:21:29;10.67;;;7.60;;
19036;SDS011;9651;49.138;8.900;2023-04-08T21:25:33;8.60;;;7.20;;
19036;SDS011;9651;49.138;8.900;2023-04-08T21:29:35;9.30;;;6.80;;
19036;SDS011;9651;49.138;8.900;2023-04-08T21:33:37;10.17;;;6.60;;
19036;SDS011;9651;49.138;8.900;2023-04-08T21:37:39;10.13;;;7.00;;
19036;SDS011;9651;49.138;8.900;2023-04-08T21:41:42;10.47;;;7.03;;
19036;SDS011;9651;49.138;8.900;2023-04-08T21:45:44;10.07;;;6.60;;
19036;SDS011;9651;49.138;8.900;2023-04-08T21:49:46;9.13;;;6.53;;
19036;SDS011;9651;49.138;8.900;2023-04-08T21:53:49;8.83;;;6.63;;
19036;SDS011;9651;49.138;8.900;2023-04-08T21:57:52;8.60;;;5.83;;
19036;SDS011;9651;49.138;8.900;2023-04-08T22:01:54;9.70;;;6.20;;
19036;SDS011;9651;49.138;8.900;2023-04-08T22:05:56;9.07;;;6.53;;
19036;SDS011;9651;49.138;8.900;2023-04-08T22:09:58;7.20;;;5.67;;
19036;SDS011;9651;49.138;8.900;2023-04-08T22:14:01;8.13;;;5.40;;
19036;SDS011;9651;49.138;8.900;2023-04-08T22:18:03;7.93;;;5.27;;
19036;SDS011;9651;49.138;8.900;2023-04-08T22:22:06;9.93;;;6.07;;
19036;SDS011;9651;49.138;8.900;2023-04-08T22:26:08;7.80;;;5.50;;
19036;SDS011;9651;49.138;8.900;2023-04-08T22:30:11;8.70;;;5.60;;
19036;SDS011;9651;49.138;8.900;2023-04-08T22:34:13;10.00;;;6.67;;
19036;SDS011;9651;49.138;8.900;2023-04-08T22:38:15;10.73;;;6.80;;
19036;SDS011;9651;49.138;8.900;2023-04-08T22:42:17;8.03;;;5.50;;
19036;SDS011;9651;49.138;8.900;2023-04-08T22:46:21;9.63;;;6.23;;
19036;SDS011;9651;49.138;8.900;2023-04-08T22:50:23;16.83;;;9.33;;
19036;SDS011;9651;49.138;8.900;2023-04-08T22:54:25;17.47;;;9.70;;
19036;SDS011;9651;49.138;8.900;2023-04-08T22:58:27;16.03;;;9.03;;
19036;SDS011;9651;49.138;8.900;2023-04-08T23:02:30;11.97;;;6.80;;
19036;SDS011;9651;49.138;8.900;2023-04-08T23:06:32;10.80;;;6.20;;
19036;SDS011;9651;49.138;8.900;2023-04-08T23:10:34;9.77;;;6.53;;
19036;SDS011;9651;49.138;8.900;2023-04-08T23:14:36;9.83;;;6.20;;
19036;SDS011;9651;49.138;8.900;2023-04-08T23:18:39;11.07;;;5.80;;
19036;SDS011;9651;49.138;8.900;2023-04-08T23:22:41;10.53;;;6.47;;
19036;SDS011;9651;49.138;8.900;2023-04-08T23:26:43;11.17;;;6.50;;
19036;SDS011;9651;49.138;8.900;2023-04-08T23:30:45;10.03;;;5.83;;
19036;SDS011;9651;49.138;8.900;2023-04-08T23:34:48;9.07;;;5.77;;
19036;SDS011;9651;49.138;8.900;2023-04-08T23:38:50;9.50;;;6.03;;
19036;SDS011;9651;49.138;8.900;2023-04-08T23:42:52;10.53;;;6.10;;
19036;SDS011;9651;49.138;8.900;2023-04-08T23:46:54;13.10;;;6.57;;
19036;SDS011;9651;49.138;8.900;2023-04-08T23:50:57;11.30;;;6.67;;
19036;SDS011;9651;49.138;8.900;2023-04-08T23:54:59;10.70;;;6.10;;
19036;SDS011;9651;49.138;8.900;2023-04-08T23:59:01;10.93;;;6.40;;
